sensor_id;sensor_type;location;lat;lon;timestamp;P1;durP1;ratioP1;P2;durP2;ratioP2
24799;SDS011;12897;50.812;4.430;2023-02-28T00:01:20;16.02;;;7.92;;
24799;SDS011;12897;50.812;4.430;2023-02-28T00:03:49;19.05;;;8.63;;
24799;SDS011;12897;50.812;4.430;2023-02-28T00:06:17;15.53;;;7.90;;
24799;SDS011;12897;50.812;4.430;2023-02-28T00:08:45;18.85;;;9.08;;
24799;SDS011;12897;50.812;4.430;2023-02-28T00:11:13;19.15;;;8.78;;
24799;SDS011;12897;50.812;4.430;2023-02-28T00:13:43;19.52;;;8.90;;
24799;SDS011;12897;50.812;4.430;2023-02-28T00:16:21;16.70;;;8.05;;
24799;SDS011;12897;50.812;4.430;2023-02-28T00:18:49;16.90;;;8.13;;
24799;SDS011;12897;50.812;4.430;2023-02-28T00:21:18;16.42;;;7.90;;
24799;SDS011;12897;50.812;4.430;2023-02-28T00:23:46;15.32;;;8.30;;
24799;SDS011;12897;50.812;4.430;2023-02-28T00:26:14;17.92;;;7.97;;
24799;SDS011;12897;50.812;4.430;2023-02-28T00:28:41;19.48;;;9.60;;
24799;SDS011;12897;50.812;4.430;2023-02-28T00:31:09;15.15;;;7.80;;
24799;SDS011;12897;50.812;4.430;2023-02-28T00:33:36;17.70;;;8.75;;
24799;SDS011;12897;50.812;4.430;2023-02-28T00:36:08;16.45;;;8.60;;
24799;SDS011;12897;50.812;4.430;2023-02-28T00:38:37;16.05;;;8.35;;
24799;SDS011;12897;50.812;4.430;2023-02-28T00:41:06;15.60;;;8.58;;
24799;SDS011;12897;50.812;4.430;2023-02-28T00:43:36;17.15;;;7.85;;
24799;SDS011;12897;50.812;4.430;2023-02-28T00:46:05;18.02;;;8.18;;
24799;SDS011;12897;50.812;4.430;2023-02-28T00:48:34;16.12;;;7.92;;
24799;SDS011;12897;50.812;4.430;2023-02-28T00:51:02;18.12;;;8.25;;
24799;SDS011;12897;50.812;4.430;2023-02-28T00:53:29;15.08;;;7.97;;
24799;SDS011;12897;50.812;4.430;2023-02-28T00:55:58;15.58;;;8.85;;
24799;SDS011;12897;50.812;4.430;2023-02-28T00:58:26;15.15;;;8.83;;
24799;SDS011;12897;50.812;4.430;2023-02-28T01:00:54;14.15;;;8.18;;
24799;SDS011;12897;50.812;4.430;2023-02-28T01:03:21;16.30;;;7.70;;
24799;SDS011;12897;50.812;4.430;2023-02-28T01:05:49;22.20;;;8.30;;
24799;SDS011;12897;50.812;4.430;2023-02-28T01:08:18;16.13;;;8.53;;
24799;SDS011;12897;50.812;4.430;2023-02-28T01:10:46;16.45;;;8.00;;
24799;SDS011;12897;50.812;4.430;2023-02-28T01:13:14;13.40;;;7.20;;
24799;SDS011;12897;50.812;4.430;2023-02-28T01:15:43;12.30;;;6.95;;
24799;SDS011;12897;50.812;4.430;2023-02-28T01:18:18;15.13;;;7.12;;
24799;SDS011;12897;50.812;4.430;2023-02-28T01:20:46;19.15;;;7.62;;
24799;SDS011;12897;50.812;4.430;2023-02-28T01:23:14;13.75;;;6.87;;
24799;SDS011;12897;50.812;4.430;2023-02-28T01:25:42;16.23;;;7.15;;
24799;SDS011;12897;50.812;4.430;2023-02-28T01:28:09;16.40;;;7.37;;
24799;SDS011;12897;50.812;4.430;2023-02-28T01:30:37;11.43;;;7.15;;
24799;SDS011;12897;50.812;4.430;2023-02-28T01:33:04;12.58;;;6.95;;
24799;SDS011;12897;50.812;4.430;2023-02-28T01:35:34;12.25;;;7.28;;
24799;SDS011;12897;50.812;4.430;2023-02-28T01:38:02;19.65;;;7.85;;
24799;SDS011;12897;50.812;4.430;2023-02-28T01:40:29;17.23;;;7.75;;
24799;SDS011;12897;50.812;4.430;2023-02-28T01:42:57;18.52;;;7.20;;
24799;SDS011;12897;50.812;4.430;2023-02-28T01:48:05;20.40;;;7.53;;
24799;SDS011;12897;50.812;4.430;2023-02-28T01:50:36;14.63;;;7.33;;
24799;SDS011;12897;50.812;4.430;2023-02-28T01:53:07;17.27;;;7.12;;
24799;SDS011;12897;50.812;4.430;2023-02-28T01:55:43;18.70;;;7.40;;
24799;SDS011;12897;50.812;4.430;2023-02-28T01:58:13;14.18;;;7.45;;
24799;SDS011;12897;50.812;4.430;2023-02-28T02:00:42;16.97;;;7.70;;
24799;SDS011;12897;50.812;4.430;2023-02-28T02:03:10;15.83;;;8.25;;
24799;SDS011;12897;50.812;4.430;2023-02-28T02:05:44;13.90;;;7.90;;
24799;SDS011;12897;50.812;4.430;2023-02-28T02:08:16;16.15;;;7.87;;
24799;SDS011;12897;50.812;4.430;2023-02-28T02:10:46;16.00;;;7.90;;
24799;SDS011;12897;50.812;4.430;2023-02-28T02:18:35;20.25;;;8.35;;
24799;SDS011;12897;50.812;4.430;2023-02-28T02:35:21;15.43;;;7.47;;
24799;SDS011;12897;50.812;4.430;2023-02-28T02:37:58;16.57;;;8.60;;
24799;SDS011;12897;50.812;4.430;2023-02-28T02:43:35;15.08;;;9.30;;
24799;SDS011;12897;50.812;4.430;2023-02-28T02:46:29;14.75;;;8.43;;
24799;SDS011;12897;50.812;4.430;2023-02-28T02:49:09;17.23;;;8.95;;
24799;SDS011;12897;50.812;4.430;2023-02-28T02:51:42;15.95;;;8.18;;
24799;SDS011;12897;50.812;4.430;2023-02-28T02:56:59;15.88;;;8.53;;
24799;SDS011;12897;50.812;4.430;2023-02-28T02:59:29;18.35;;;8.98;;
24799;SDS011;12897;50.812;4.430;2023-02-28T03:02:03;15.13;;;8.73;;
24799;SDS011;12897;50.812;4.430;2023-02-28T03:04:34;21.00;;;8.98;;
24799;SDS011;12897;50.812;4.430;2023-02-28T03:07:03;16.25;;;8.50;;
24799;SDS011;12897;50.812;4.430;2023-02-28T03:09:37;17.27;;;9.38;;
24799;SDS011;12897;50.812;4.430;2023-02-28T03:12:04;18.80;;;9.25;;
24799;SDS011;12897;50.812;4.430;2023-02-28T03:17:29;15.32;;;8.68;;
24799;SDS011;12897;50.812;4.430;2023-02-28T03:20:10;18.92;;;9.15;;
24799;SDS011;12897;50.812;4.430;2023-02-28T03:25:28;18.35;;;9.53;;
24799;SDS011;12897;50.812;4.430;2023-02-28T03:28:13;16.15;;;9.90;;
24799;SDS011;12897;50.812;4.430;2023-02-28T03:31:06;21.62;;;10.32;;
24799;SDS011;12897;50.812;4.430;2023-02-28T03:33:38;16.27;;;9.68;;
24799;SDS011;12897;50.812;4.430;2023-02-28T03:36:03;22.40;;;9.90;;
24799;SDS011;12897;50.812;4.430;2023-02-28T03:38:40;23.38;;;9.33;;
24799;SDS011;12897;50.812;4.430;2023-02-28T03:41:30;17.32;;;9.23;;
24799;SDS011;12897;50.812;4.430;2023-02-28T03:44:34;20.52;;;9.53;;
24799;SDS011;12897;50.812;4.430;2023-02-28T03:47:07;20.55;;;9.78;;
24799;SDS011;12897;50.812;4.430;2023-02-28T03:49:36;21.90;;;9.45;;
24799;SDS011;12897;50.812;4.430;2023-02-28T03:52:10;15.93;;;9.05;;
24799;SDS011;12897;50.812;4.430;2023-02-28T03:54:41;18.00;;;9.25;;
24799;SDS011;12897;50.812;4.430;2023-02-28T03:57:27;20.10;;;9.98;;
24799;SDS011;12897;50.812;4.430;2023-02-28T04:00:05;16.87;;;10.32;;
24799;SDS011;12897;50.812;4.430;2023-02-28T04:02:31;18.98;;;10.08;;
24799;SDS011;12897;50.812;4.430;2023-02-28T04:05:00;21.87;;;9.73;;
24799;SDS011;12897;50.812;4.430;2023-02-28T04:07:30;21.85;;;10.38;;
24799;SDS011;12897;50.812;4.430;2023-02-28T04:09:58;18.80;;;10.50;;
24799;SDS011;12897;50.812;4.430;2023-02-28T04:12:26;17.85;;;10.45;;
24799;SDS011;12897;50.812;4.430;2023-02-28T04:14:53;20.02;;;11.12;;
24799;SDS011;12897;50.812;4.430;2023-02-28T04:17:21;20.00;;;11.80;;
24799;SDS011;12897;50.812;4.430;2023-02-28T04:19:48;20.72;;;10.70;;
24799;SDS011;12897;50.812;4.430;2023-02-28T04:22:16;20.62;;;11.38;;
24799;SDS011;12897;50.812;4.430;2023-02-28T04:24:44;22.87;;;11.48;;
24799;SDS011;12897;50.812;4.430;2023-02-28T04:27:11;23.47;;;11.35;;
24799;SDS011;12897;50.812;4.430;2023-02-28T04:29:40;29.03;;;11.87;;
24799;SDS011;12897;50.812;4.430;2023-02-28T04:32:10;23.05;;;12.00;;
24799;SDS011;12897;50.812;4.430;2023-02-28T04:34:37;21.55;;;12.28;;
24799;SDS011;12897;50.812;4.430;2023-02-28T04:37:05;22.67;;;11.80;;
24799;SDS011;12897;50.812;4.430;2023-02-28T04:39:34;21.20;;;10.80;;
24799;SDS011;12897;50.812;4.430;2023-02-28T04:44:30;21.62;;;11.43;;
24799;SDS011;12897;50.812;4.430;2023-02-28T04:49:44;24.85;;;12.58;;
24799;SDS011;12897;50.812;4.430;2023-02-28T04:52:12;21.90;;;12.40;;
24799;SDS011;12897;50.812;4.430;2023-02-28T04:54:39;26.90;;;13.18;;
24799;SDS011;12897;50.812;4.430;2023-02-28T04:57:07;19.45;;;11.75;;
24799;SDS011;12897;50.812;4.430;2023-02-28T04:59:34;21.25;;;12.73;;
24799;SDS011;12897;50.812;4.430;2023-02-28T05:02:03;26.05;;;12.78;;
24799;SDS011;12897;50.812;4.430;2023-02-28T05:04:33;26.70;;;13.20;;
24799;SDS011;12897;50.812;4.430;2023-02-28T05:07:01;27.07;;;13.28;;
24799;SDS011;12897;50.812;4.430;2023-02-28T05:09:29;21.65;;;12.85;;
24799;SDS011;12897;50.812;4.430;2023-02-28T05:11:58;21.35;;;12.45;;
24799;SDS011;12897;50.812;4.430;2023-02-28T05:14:26;25.68;;;13.05;;
24799;SDS011;12897;50.812;4.430;2023-02-28T05:16:53;18.07;;;12.35;;
24799;SDS011;12897;50.812;4.430;2023-02-28T05:19:21;29.32;;;13.25;;
24799;SDS011;12897;50.812;4.430;2023-02-28T05:21:52;23.42;;;12.88;;
24799;SDS011;12897;50.812;4.430;2023-02-28T05:24:21;24.25;;;12.88;;
24799;SDS011;12897;50.812;4.430;2023-02-28T05:26:49;18.15;;;11.95;;
24799;SDS011;12897;50.812;4.430;2023-02-28T05:29:18;22.20;;;14.10;;
24799;SDS011;12897;50.812;4.430;2023-02-28T05:31:46;25.40;;;12.53;;
24799;SDS011;12897;50.812;4.430;2023-02-28T05:34:14;23.15;;;12.37;;
24799;SDS011;12897;50.812;4.430;2023-02-28T05:36:42;28.83;;;13.15;;
24799;SDS011;12897;50.812;4.430;2023-02-28T05:39:10;22.95;;;12.47;;
24799;SDS011;12897;50.812;4.430;2023-02-28T05:41:39;21.20;;;11.93;;
24799;SDS011;12897;50.812;4.430;2023-02-28T05:44:09;21.52;;;12.75;;
24799;SDS011;12897;50.812;4.430;2023-02-28T05:46:38;27.22;;;13.25;;
24799;SDS011;12897;50.812;4.430;2023-02-28T05:49:05;24.95;;;13.75;;
24799;SDS011;12897;50.812;4.430;2023-02-28T05:51:33;26.87;;;13.08;;
24799;SDS011;12897;50.812;4.430;2023-02-28T05:54:02;26.00;;;13.25;;
24799;SDS011;12897;50.812;4.430;2023-02-28T05:56:36;24.77;;;13.38;;
24799;SDS011;12897;50.812;4.430;2023-02-28T05:59:06;24.75;;;12.70;;
24799;SDS011;12897;50.812;4.430;2023-02-28T06:01:35;22.32;;;13.05;;
24799;SDS011;12897;50.812;4.430;2023-02-28T06:04:05;23.07;;;12.75;;
24799;SDS011;12897;50.812;4.430;2023-02-28T06:06:37;25.15;;;12.33;;
24799;SDS011;12897;50.812;4.430;2023-02-28T06:09:05;27.02;;;13.22;;
24799;SDS011;12897;50.812;4.430;2023-02-28T06:11:32;25.43;;;12.65;;
24799;SDS011;12897;50.812;4.430;2023-02-28T06:14:01;22.62;;;12.63;;
24799;SDS011;12897;50.812;4.430;2023-02-28T06:16:29;22.52;;;13.13;;
24799;SDS011;12897;50.812;4.430;2023-02-28T06:18:59;26.10;;;13.28;;
24799;SDS011;12897;50.812;4.430;2023-02-28T06:21:30;24.90;;;11.68;;
24799;SDS011;12897;50.812;4.430;2023-02-28T06:23:58;21.45;;;13.05;;
24799;SDS011;12897;50.812;4.430;2023-02-28T06:26:27;25.10;;;12.68;;
24799;SDS011;12897;50.812;4.430;2023-02-28T06:28:56;25.68;;;12.53;;
24799;SDS011;12897;50.812;4.430;2023-02-28T06:31:23;19.52;;;12.30;;
24799;SDS011;12897;50.812;4.430;2023-02-28T06:33:52;20.37;;;12.88;;
24799;SDS011;12897;50.812;4.430;2023-02-28T06:36:19;23.77;;;12.40;;
24799;SDS011;12897;50.812;4.430;2023-02-28T06:38:49;25.82;;;12.35;;
24799;SDS011;12897;50.812;4.430;2023-02-28T06:41:18;21.42;;;12.70;;
24799;SDS011;12897;50.812;4.430;2023-02-28T06:43:46;18.42;;;11.63;;
24799;SDS011;12897;50.812;4.430;2023-02-28T06:46:14;26.70;;;12.25;;
24799;SDS011;12897;50.812;4.430;2023-02-28T06:48:44;26.35;;;11.90;;
24799;SDS011;12897;50.812;4.430;2023-02-28T06:51:14;23.45;;;12.33;;
24799;SDS011;12897;50.812;4.430;2023-02-28T06:53:50;20.27;;;11.88;;
24799;SDS011;12897;50.812;4.430;2023-02-28T06:56:19;21.52;;;11.38;;
24799;SDS011;12897;50.812;4.430;2023-02-28T07:01:18;23.25;;;12.33;;
24799;SDS011;12897;50.812;4.430;2023-02-28T07:03:47;26.95;;;11.63;;
24799;SDS011;12897;50.812;4.430;2023-02-28T07:08:45;24.37;;;11.70;;
24799;SDS011;12897;50.812;4.430;2023-02-28T07:11:14;25.75;;;11.97;;
24799;SDS011;12897;50.812;4.430;2023-02-28T07:13:42;27.30;;;12.88;;
24799;SDS011;12897;50.812;4.430;2023-02-28T07:16:10;18.07;;;10.90;;
24799;SDS011;12897;50.812;4.430;2023-02-28T07:18:38;21.17;;;11.18;;
24799;SDS011;12897;50.812;4.430;2023-02-28T07:21:07;24.55;;;11.80;;
24799;SDS011;12897;50.812;4.430;2023-02-28T07:23:36;26.90;;;12.43;;
24799;SDS011;12897;50.812;4.430;2023-02-28T07:26:10;25.12;;;12.15;;
24799;SDS011;12897;50.812;4.430;2023-02-28T07:35:07;22.95;;;12.10;;
24799;SDS011;12897;50.812;4.430;2023-02-28T07:37:38;20.30;;;12.15;;
24799;SDS011;12897;50.812;4.430;2023-02-28T07:40:07;21.90;;;12.28;;
24799;SDS011;12897;50.812;4.430;2023-02-28T07:42:40;22.17;;;11.48;;
24799;SDS011;12897;50.812;4.430;2023-02-28T07:45:09;34.05;;;11.85;;
24799;SDS011;12897;50.812;4.430;2023-02-28T07:47:38;19.10;;;10.48;;
24799;SDS011;12897;50.812;4.430;2023-02-28T07:50:06;21.27;;;10.82;;
24799;SDS011;12897;50.812;4.430;2023-02-28T07:52:41;21.42;;;10.82;;
24799;SDS011;12897;50.812;4.430;2023-02-28T07:55:09;20.15;;;9.43;;
24799;SDS011;12897;50.812;4.430;2023-02-28T07:57:37;17.25;;;10.48;;
24799;SDS011;12897;50.812;4.430;2023-02-28T08:00:06;22.87;;;10.50;;
24799;SDS011;12897;50.812;4.430;2023-02-28T08:02:37;14.93;;;10.32;;
24799;SDS011;12897;50.812;4.430;2023-02-28T08:05:05;18.70;;;9.88;;
24799;SDS011;12897;50.812;4.430;2023-02-28T08:07:37;18.20;;;9.65;;
24799;SDS011;12897;50.812;4.430;2023-02-28T08:12:35;16.77;;;8.35;;
24799;SDS011;12897;50.812;4.430;2023-02-28T08:15:03;21.52;;;8.73;;
24799;SDS011;12897;50.812;4.430;2023-02-28T08:17:31;14.63;;;8.60;;
24799;SDS011;12897;50.812;4.430;2023-02-28T08:20:00;16.80;;;8.70;;
24799;SDS011;12897;50.812;4.430;2023-02-28T08:22:33;18.27;;;8.18;;
24799;SDS011;12897;50.812;4.430;2023-02-28T08:25:02;17.40;;;7.85;;
24799;SDS011;12897;50.812;4.430;2023-02-28T08:27:36;13.75;;;7.87;;
24799;SDS011;12897;50.812;4.430;2023-02-28T08:30:04;16.85;;;8.28;;
24799;SDS011;12897;50.812;4.430;2023-02-28T08:32:40;17.25;;;7.72;;
24799;SDS011;12897;50.812;4.430;2023-02-28T08:35:04;16.07;;;7.45;;
24799;SDS011;12897;50.812;4.430;2023-02-28T08:37:36;21.73;;;9.48;;
24799;SDS011;12897;50.812;4.430;2023-02-28T08:40:04;14.05;;;7.12;;
24799;SDS011;12897;50.812;4.430;2023-02-28T08:42:36;19.65;;;8.25;;
24799;SDS011;12897;50.812;4.430;2023-02-28T08:45:12;14.00;;;7.22;;
24799;SDS011;12897;50.812;4.430;2023-02-28T08:53:14;13.10;;;7.55;;
24799;SDS011;12897;50.812;4.430;2023-02-28T08:55:41;15.43;;;6.95;;
24799;SDS011;12897;50.812;4.430;2023-02-28T08:58:29;15.38;;;6.47;;
24799;SDS011;12897;50.812;4.430;2023-02-28T09:00:54;12.20;;;6.60;;
24799;SDS011;12897;50.812;4.430;2023-02-28T09:05:56;12.37;;;6.45;;
24799;SDS011;12897;50.812;4.430;2023-02-28T09:08:31;13.10;;;5.95;;
24799;SDS011;12897;50.812;4.430;2023-02-28T09:11:07;12.80;;;6.28;;
24799;SDS011;12897;50.812;4.430;2023-02-28T09:13:40;9.50;;;5.45;;
24799;SDS011;12897;50.812;4.430;2023-02-28T09:16:13;12.78;;;5.75;;
24799;SDS011;12897;50.812;4.430;2023-02-28T09:18:46;7.55;;;4.35;;
24799;SDS011;12897;50.812;4.430;2023-02-28T09:21:19;9.30;;;5.15;;
24799;SDS011;12897;50.812;4.430;2023-02-28T09:23:51;11.10;;;5.17;;
24799;SDS011;12897;50.812;4.430;2023-02-28T09:26:18;8.58;;;4.37;;
24799;SDS011;12897;50.812;4.430;2023-02-28T09:28:52;11.18;;;5.50;;
24799;SDS011;12897;50.812;4.430;2023-02-28T09:31:26;8.80;;;5.08;;
24799;SDS011;12897;50.812;4.430;2023-02-28T09:33:53;13.98;;;4.50;;
24799;SDS011;12897;50.812;4.430;2023-02-28T09:36:22;6.40;;;4.30;;
24799;SDS011;12897;50.812;4.430;2023-02-28T09:38:51;10.55;;;4.95;;
24799;SDS011;12897;50.812;4.430;2023-02-28T09:41:20;8.00;;;4.12;;
24799;SDS011;12897;50.812;4.430;2023-02-28T09:43:55;8.18;;;4.40;;
24799;SDS011;12897;50.812;4.430;2023-02-28T09:46:27;7.42;;;3.90;;
24799;SDS011;12897;50.812;4.430;2023-02-28T09:49:10;10.18;;;4.62;;
24799;SDS011;12897;50.812;4.430;2023-02-28T09:54:33;7.50;;;4.10;;
24799;SDS011;12897;50.812;4.430;2023-02-28T09:57:07;10.98;;;3.95;;
24799;SDS011;12897;50.812;4.430;2023-02-28T09:59:39;14.40;;;4.03;;
24799;SDS011;12897;50.812;4.430;2023-02-28T10:05:18;6.45;;;4.40;;
24799;SDS011;12897;50.812;4.430;2023-02-28T10:08:03;9.05;;;4.22;;
24799;SDS011;12897;50.812;4.430;2023-02-28T10:10:41;5.97;;;3.35;;
24799;SDS011;12897;50.812;4.430;2023-02-28T10:15:51;6.17;;;3.67;;
24799;SDS011;12897;50.812;4.430;2023-02-28T10:18:23;8.00;;;3.58;;
24799;SDS011;12897;50.812;4.430;2023-02-28T10:20:52;7.28;;;3.50;;
24799;SDS011;12897;50.812;4.430;2023-02-28T10:25:59;11.55;;;4.10;;
24799;SDS011;12897;50.812;4.430;2023-02-28T10:28:36;6.28;;;3.55;;
24799;SDS011;12897;50.812;4.430;2023-02-28T10:31:01;4.47;;;2.80;;
24799;SDS011;12897;50.812;4.430;2023-02-28T10:33:31;9.20;;;3.12;;
24799;SDS011;12897;50.812;4.430;2023-02-28T10:36:03;4.85;;;3.00;;
24799;SDS011;12897;50.812;4.430;2023-02-28T10:38:33;6.53;;;2.75;;
24799;SDS011;12897;50.812;4.430;2023-02-28T10:41:06;5.80;;;2.67;;
24799;SDS011;12897;50.812;4.430;2023-02-28T10:43:35;3.58;;;2.75;;
24799;SDS011;12897;50.812;4.430;2023-02-28T10:48:50;7.10;;;3.27;;
24799;SDS011;12897;50.812;4.430;2023-02-28T10:51:18;5.97;;;3.27;;
24799;SDS011;12897;50.812;4.430;2023-02-28T10:56:20;15.00;;;3.50;;
24799;SDS011;12897;50.812;4.430;2023-02-28T11:01:48;6.10;;;3.10;;
24799;SDS011;12897;50.812;4.430;2023-02-28T11:04:32;8.13;;;3.20;;
24799;SDS011;12897;50.812;4.430;2023-02-28T11:07:01;4.95;;;3.00;;
24799;SDS011;12897;50.812;4.430;2023-02-28T11:09:45;4.97;;;2.80;;
24799;SDS011;12897;50.812;4.430;2023-02-28T11:12:19;6.97;;;3.03;;
24799;SDS011;12897;50.812;4.430;2023-02-28T11:14:40;6.25;;;3.65;;
24799;SDS011;12897;50.812;4.430;2023-02-28T11:17:20;7.90;;;3.10;;
24799;SDS011;12897;50.812;4.430;2023-02-28T11:19:54;3.80;;;2.70;;
24799;SDS011;12897;50.812;4.430;2023-02-28T11:22:29;4.67;;;2.98;;
24799;SDS011;12897;50.812;4.430;2023-02-28T11:25:02;6.03;;;2.70;;
24799;SDS011;12897;50.812;4.430;2023-02-28T11:27:50;5.35;;;3.27;;
24799;SDS011;12897;50.812;4.430;2023-02-28T11:33:23;9.28;;;3.50;;
24799;SDS011;12897;50.812;4.430;2023-02-28T11:36:12;7.75;;;3.60;;
24799;SDS011;12897;50.812;4.430;2023-02-28T11:38:41;6.45;;;3.37;;
24799;SDS011;12897;50.812;4.430;2023-02-28T11:52:20;5.80;;;3.33;;
24799;SDS011;12897;50.812;4.430;2023-02-28T11:54:53;6.47;;;3.70;;
24799;SDS011;12897;50.812;4.430;2023-02-28T12:00:00;10.13;;;4.25;;
24799;SDS011;12897;50.812;4.430;2023-02-28T12:13:32;6.25;;;2.98;;
24799;SDS011;12897;50.812;4.430;2023-02-28T12:16:20;4.83;;;2.70;;
24799;SDS011;12897;50.812;4.430;2023-02-28T12:19:32;5.17;;;2.90;;
24799;SDS011;12897;50.812;4.430;2023-02-28T12:24:12;5.08;;;2.95;;
24799;SDS011;12897;50.812;4.430;2023-02-28T12:26:55;4.37;;;3.10;;
24799;SDS011;12897;50.812;4.430;2023-02-28T12:29:34;8.55;;;3.27;;
24799;SDS011;12897;50.812;4.430;2023-02-28T12:34:52;5.97;;;2.95;;
24799;SDS011;12897;50.812;4.430;2023-02-28T12:40:26;4.67;;;3.30;;
24799;SDS011;12897;50.812;4.430;2023-02-28T12:43:00;5.45;;;3.10;;
24799;SDS011;12897;50.812;4.430;2023-02-28T12:45:39;4.70;;;2.90;;
24799;SDS011;12897;50.812;4.430;2023-02-28T12:48:21;9.98;;;4.40;;
24799;SDS011;12897;50.812;4.430;2023-02-28T12:50:58;11.65;;;4.15;;
24799;SDS011;12897;50.812;4.430;2023-02-28T12:59:10;5.97;;;3.80;;
24799;SDS011;12897;50.812;4.430;2023-02-28T13:10:10;5.55;;;3.40;;
24799;SDS011;12897;50.812;4.430;2023-02-28T13:12:52;6.22;;;3.55;;
24799;SDS011;12897;50.812;4.430;2023-02-28T13:15:18;3.80;;;2.55;;
24799;SDS011;12897;50.812;4.430;2023-02-28T13:17:54;6.85;;;2.95;;
24799;SDS011;12897;50.812;4.430;2023-02-28T13:20:33;9.73;;;4.33;;
24799;SDS011;12897;50.812;4.430;2023-02-28T13:22:59;6.03;;;3.42;;
24799;SDS011;12897;50.812;4.430;2023-02-28T13:28:09;5.28;;;3.42;;
24799;SDS011;12897;50.812;4.430;2023-02-28T13:31:23;9.13;;;3.05;;
24799;SDS011;12897;50.812;4.430;2023-02-28T13:36:10;6.45;;;3.20;;
24799;SDS011;12897;50.812;4.430;2023-02-28T13:38:54;5.67;;;2.92;;
24799;SDS011;12897;50.812;4.430;2023-02-28T13:44:13;5.10;;;2.87;;
24799;SDS011;12897;50.812;4.430;2023-02-28T13:49:27;4.22;;;2.60;;
24799;SDS011;12897;50.812;4.430;2023-02-28T13:54:52;8.00;;;3.20;;
24799;SDS011;12897;50.812;4.430;2023-02-28T13:57:30;15.95;;;4.05;;
24799;SDS011;12897;50.812;4.430;2023-02-28T14:05:41;7.12;;;4.15;;
24799;SDS011;12897;50.812;4.430;2023-02-28T14:08:13;3.95;;;2.98;;
24799;SDS011;12897;50.812;4.430;2023-02-28T14:10:47;6.20;;;3.33;;
24799;SDS011;12897;50.812;4.430;2023-02-28T14:16:13;7.75;;;3.60;;
24799;SDS011;12897;50.812;4.430;2023-02-28T14:18:50;8.43;;;3.65;;
24799;SDS011;12897;50.812;4.430;2023-02-28T14:21:29;7.53;;;3.45;;
24799;SDS011;12897;50.812;4.430;2023-02-28T14:29:58;7.20;;;3.10;;
24799;SDS011;12897;50.812;4.430;2023-02-28T14:37:55;5.87;;;3.10;;
24799;SDS011;12897;50.812;4.430;2023-02-28T14:40:30;8.35;;;3.67;;
24799;SDS011;12897;50.812;4.430;2023-02-28T14:42:59;6.70;;;3.30;;
24799;SDS011;12897;50.812;4.430;2023-02-28T14:45:30;9.03;;;3.80;;
24799;SDS011;12897;50.812;4.430;2023-02-28T14:47:59;4.83;;;3.42;;
24799;SDS011;12897;50.812;4.430;2023-02-28T14:50:31;6.67;;;3.50;;
24799;SDS011;12897;50.812;4.430;2023-02-28T14:53:01;4.47;;;3.30;;
24799;SDS011;12897;50.812;4.430;2023-02-28T14:55:33;5.80;;;3.25;;
24799;SDS011;12897;50.812;4.430;2023-02-28T14:58:05;5.50;;;3.00;;
24799;SDS011;12897;50.812;4.430;2023-02-28T15:00:47;7.70;;;3.42;;
24799;SDS011;12897;50.812;4.430;2023-02-28T15:03:23;7.30;;;3.58;;
24799;SDS011;12897;50.812;4.430;2023-02-28T15:05:56;6.50;;;3.30;;
24799;SDS011;12897;50.812;4.430;2023-02-28T15:08:23;7.30;;;3.62;;
24799;SDS011;12897;50.812;4.430;2023-02-28T15:11:05;5.85;;;3.60;;
24799;SDS011;12897;50.812;4.430;2023-02-28T15:13:49;7.33;;;3.52;;
24799;SDS011;12897;50.812;4.430;2023-02-28T15:16:21;5.92;;;3.75;;
24799;SDS011;12897;50.812;4.430;2023-02-28T15:21:31;8.00;;;3.47;;
24799;SDS011;12897;50.812;4.430;2023-02-28T15:24:03;7.67;;;4.15;;
24799;SDS011;12897;50.812;4.430;2023-02-28T15:26:37;10.70;;;3.58;;
24799;SDS011;12897;50.812;4.430;2023-02-28T15:29:24;6.15;;;3.30;;
24799;SDS011;12897;50.812;4.430;2023-02-28T15:39:56;6.05;;;4.10;;
24799;SDS011;12897;50.812;4.430;2023-02-28T15:42:28;8.13;;;4.00;;
24799;SDS011;12897;50.812;4.430;2023-02-28T15:44:58;7.08;;;4.00;;
24799;SDS011;12897;50.812;4.430;2023-02-28T15:47:27;7.60;;;3.75;;
24799;SDS011;12897;50.812;4.430;2023-02-28T15:53:03;7.28;;;3.70;;
24799;SDS011;12897;50.812;4.430;2023-02-28T15:55:31;6.67;;;3.90;;
24799;SDS011;12897;50.812;4.430;2023-02-28T15:58:00;8.13;;;4.00;;
24799;SDS011;12897;50.812;4.430;2023-02-28T16:00:33;5.37;;;4.12;;
24799;SDS011;12897;50.812;4.430;2023-02-28T16:08:57;5.80;;;3.42;;
24799;SDS011;12897;50.812;4.430;2023-02-28T16:11:33;6.72;;;4.05;;
24799;SDS011;12897;50.812;4.430;2023-02-28T16:14:08;6.65;;;3.75;;
24799;SDS011;12897;50.812;4.430;2023-02-28T16:16:53;6.00;;;4.05;;
24799;SDS011;12897;50.812;4.430;2023-02-28T16:19:32;5.87;;;3.70;;
24799;SDS011;12897;50.812;4.430;2023-02-28T16:22:07;8.55;;;4.17;;
24799;SDS011;12897;50.812;4.430;2023-02-28T16:24:39;9.83;;;3.80;;
24799;SDS011;12897;50.812;4.430;2023-02-28T16:27:30;7.72;;;3.80;;
24799;SDS011;12897;50.812;4.430;2023-02-28T16:29:57;6.62;;;3.92;;
24799;SDS011;12897;50.812;4.430;2023-02-28T16:32:22;6.30;;;3.52;;
24799;SDS011;12897;50.812;4.430;2023-02-28T16:34:49;7.25;;;3.77;;
24799;SDS011;12897;50.812;4.430;2023-02-28T16:37:17;8.10;;;3.80;;
24799;SDS011;12897;50.812;4.430;2023-02-28T16:39:46;8.15;;;4.00;;
24799;SDS011;12897;50.812;4.430;2023-02-28T16:42:23;8.95;;;4.05;;
24799;SDS011;12897;50.812;4.430;2023-02-28T16:44:53;5.87;;;3.62;;
24799;SDS011;12897;50.812;4.430;2023-02-28T16:47:22;6.45;;;3.75;;
24799;SDS011;12897;50.812;4.430;2023-02-28T16:49:49;8.20;;;3.80;;
24799;SDS011;12897;50.812;4.430;2023-02-28T16:52:17;6.30;;;3.60;;
24799;SDS011;12897;50.812;4.430;2023-02-28T16:54:44;6.58;;;3.47;;
24799;SDS011;12897;50.812;4.430;2023-02-28T16:57:20;6.03;;;3.65;;
24799;SDS011;12897;50.812;4.430;2023-02-28T16:59:47;8.90;;;3.98;;
24799;SDS011;12897;50.812;4.430;2023-02-28T17:02:16;5.47;;;3.47;;
24799;SDS011;12897;50.812;4.430;2023-02-28T17:04:46;8.48;;;3.95;;
24799;SDS011;12897;50.812;4.430;2023-02-28T17:07:14;11.53;;;3.60;;
24799;SDS011;12897;50.812;4.430;2023-02-28T17:09:43;6.00;;;3.37;;
24799;SDS011;12897;50.812;4.430;2023-02-28T17:12:11;8.18;;;3.72;;
24799;SDS011;12897;50.812;4.430;2023-02-28T17:14:40;6.40;;;3.20;;
24799;SDS011;12897;50.812;4.430;2023-02-28T17:17:09;6.75;;;3.80;;
24799;SDS011;12897;50.812;4.430;2023-02-28T17:19:38;8.28;;;3.77;;
24799;SDS011;12897;50.812;4.430;2023-02-28T17:22:07;8.37;;;3.53;;
24799;SDS011;12897;50.812;4.430;2023-02-28T17:24:35;6.35;;;4.15;;
24799;SDS011;12897;50.812;4.430;2023-02-28T17:27:03;10.32;;;4.70;;
24799;SDS011;12897;50.812;4.430;2023-02-28T17:29:34;10.78;;;3.95;;
24799;SDS011;12897;50.812;4.430;2023-02-28T17:32:01;7.78;;;3.65;;
24799;SDS011;12897;50.812;4.430;2023-02-28T17:34:29;10.75;;;4.35;;
24799;SDS011;12897;50.812;4.430;2023-02-28T17:36:56;7.65;;;3.95;;
24799;SDS011;12897;50.812;4.430;2023-02-28T17:39:24;6.10;;;3.90;;
24799;SDS011;12897;50.812;4.430;2023-02-28T17:41:55;7.75;;;3.67;;
24799;SDS011;12897;50.812;4.430;2023-02-28T17:44:23;6.67;;;3.90;;
24799;SDS011;12897;50.812;4.430;2023-02-28T17:46:52;8.60;;;4.20;;
24799;SDS011;12897;50.812;4.430;2023-02-28T17:49:21;9.38;;;4.00;;
24799;SDS011;12897;50.812;4.430;2023-02-28T17:51:49;8.48;;;4.47;;
24799;SDS011;12897;50.812;4.430;2023-02-28T17:54:27;8.08;;;4.20;;
24799;SDS011;12897;50.812;4.430;2023-02-28T17:56:50;9.85;;;4.25;;
24799;SDS011;12897;50.812;4.430;2023-02-28T17:59:18;10.00;;;4.65;;
24799;SDS011;12897;50.812;4.430;2023-02-28T18:01:45;8.43;;;4.58;;
24799;SDS011;12897;50.812;4.430;2023-02-28T18:04:13;8.30;;;4.60;;